Aviation Digital Data Service (ADDS)

Output produced by METARs form (1519 UTC 15 November 2018)
found at http://aviationweather.gov/metar/data/
 
METAR text: UBBN 151500Z 05004KT 9999 SCT050CB OVC100 10/03 Q1014 R14R/CLRD// NOSIG RMK MT OP QFE686
Conditions at: UBBN (NAKHCHIVAN , AZ) observed 1500 UTC 15 November 2018
Temperature: 10.0°C (50°F)
Dewpoint: 3.0°C (37°F) [RH = 62%]
Pressure (altimeter): 29.94 inches Hg (1014.0 mb)
Winds: from the NE (50 degrees) at 5 MPH (4 knots; 2.1 m/s)
Visibility: 6 or more miles (10+ km)
Ceiling: 10000 feet AGL
Clouds: scattered clouds at 5000 feet AGL
overcast cloud deck at 10000 feet AGL
Weather: no significant weather observed at this time

METAR text: UBBN 151430Z 12008KT 9999 SCT050CB OVC100 10/03 Q1014 R14R/CLRD// NOSIG RMK MT OP QFE685
Conditions at: UBBN (NAKHCHIVAN , AZ) observed 1430 UTC 15 November 2018
Temperature: 10.0°C (50°F)
Dewpoint: 3.0°C (37°F) [RH = 62%]
Pressure (altimeter): 29.94 inches Hg (1014.0 mb)
Winds: from the ESE (120 degrees) at 9 MPH (8 knots; 4.1 m/s)
Visibility: 6 or more miles (10+ km)
Ceiling: 10000 feet AGL
Clouds: scattered clouds at 5000 feet AGL
overcast cloud deck at 10000 feet AGL
Weather: no significant weather observed at this time

Forecast for: UBBN (NAKHCHIVAN , AZ)
Text: TAF UBBN 151100Z 1512/1612 11012KT 9999 SCT040 FEW050CB BKN100 TX13/1512Z TN05/1603Z
Forecast period: 1200 UTC 15 November 2018 to 1200 UTC 16 November 2018
Forecast type: FROM: standard forecast or significant change
Winds: from the ESE (110 degrees) at 14 MPH (12 knots; 6.2 m/s)
Visibility: 6 or more miles 10+ km)
Ceiling: 10000 feet AGL
Clouds: scattered clouds at 4000 feet AGL
few clouds at 5000 feet AGL
broken clouds at 10000 feet AGL
Weather: no significant weather forecast for this period
Text: TEMPO 1512/1520 15016G26KT 7000 -SHRA SCT036CB OVC080
Forecast period: 1200 to 2000 UTC 15 November 2018
Forecast type: TEMPORARY: The following changes expected for less than half the time period
Winds: from the SSE (150 degrees) at 18 MPH (16 knots; 8.2 m/s)
gusting to 30 MPH (26 knots; 13.4 m/s)
Visibility: 4 miles (7 km)
Ceiling: 8000 feet AGL
Clouds: scattered clouds at 3600 feet AGL
overcast cloud deck at 8000 feet AGL
Weather: -SHRA  (light rain showers)